createdAt,value
2022-08-27T00:00:39.419Z,2.95
2022-08-27T00:03:18.795Z,2.58
2022-08-27T00:05:48.978Z,3.20
2022-08-27T00:08:22.124Z,2.60
2022-08-27T00:10:50.867Z,3.30
2022-08-27T00:13:19.623Z,3.17
2022-08-27T00:15:49.689Z,2.97
2022-08-27T00:18:22.483Z,2.42
2022-08-27T00:20:51.790Z,2.17
2022-08-27T00:23:23.331Z,2.55
2022-08-27T00:25:52.949Z,2.83
2022-08-27T00:28:21.495Z,3.42
2022-08-27T00:30:51.032Z,2.60
2022-08-27T00:33:31.598Z,2.72
2022-08-27T00:36:01.491Z,3.15
2022-08-27T00:38:31.760Z,3.17
2022-08-27T00:41:01.220Z,3.50
2022-08-27T00:43:45.802Z,2.78
2022-08-27T00:46:22.754Z,2.55
2022-08-27T00:49:01.426Z,3.47
2022-08-27T00:51:32.827Z,4.22
2022-08-27T00:54:02.503Z,4.10
2022-08-27T00:56:35.676Z,4.13
2022-08-27T00:59:04.362Z,5.40
2022-08-27T01:01:36.045Z,5.20
2022-08-27T01:04:06.398Z,4.93
2022-08-27T01:06:42.394Z,5.95
2022-08-27T01:09:18.224Z,5.05
2022-08-27T01:11:52.168Z,5.63
2022-08-27T01:14:28.488Z,6.03
2022-08-27T01:16:58.810Z,4.05
2022-08-27T01:19:35.984Z,3.10
2022-08-27T01:22:05.654Z,3.50
2022-08-27T01:24:39.558Z,3.95
2022-08-27T01:27:13.424Z,4.65
2022-08-27T01:29:43.470Z,3.72
2022-08-27T01:32:19.193Z,4.38
2022-08-27T01:34:49.305Z,3.03
2022-08-27T01:37:23.715Z,3.92
2022-08-27T01:42:27.918Z,2.83
2022-08-27T01:45:01.257Z,3.08
2022-08-27T01:47:42.518Z,2.97
2022-08-27T01:50:16.806Z,2.90
2022-08-27T01:52:58.615Z,2.72
2022-08-27T01:55:30.657Z,2.80
2022-08-27T01:58:00.514Z,3.13
2022-08-27T02:00:31.711Z,1.75
2022-08-27T02:03:18.157Z,2.00
2022-08-27T02:05:47.550Z,1.77
2022-08-27T02:08:17.912Z,1.60
2022-08-27T02:10:48.669Z,2.00
2022-08-27T02:13:17.517Z,1.63
2022-08-27T02:15:46.465Z,1.80
2022-08-27T02:18:17.012Z,1.45
2022-08-27T02:20:48.437Z,1.42
2022-08-27T02:23:19.052Z,1.73
2022-08-27T02:25:48.146Z,1.90
2022-08-27T02:28:18.375Z,1.60
2022-08-27T02:30:47.178Z,2.35
2022-08-27T02:33:21.783Z,1.23
2022-08-27T02:35:52.573Z,2.30
2022-08-27T02:38:22.601Z,1.88
2022-08-27T02:41:04.384Z,1.70
2022-08-27T02:43:35.726Z,1.88
2022-08-27T02:46:12.030Z,2.67
2022-08-27T02:48:59.718Z,2.28
2022-08-27T02:51:44.332Z,1.65
2022-08-27T02:54:15.466Z,2.17
2022-08-27T02:56:46.751Z,1.50
2022-08-27T02:59:17.891Z,1.80
2022-08-27T03:01:47.760Z,1.95
2022-08-27T03:04:17.018Z,2.63
2022-08-27T03:06:47.275Z,2.00
2022-08-27T03:09:16.552Z,2.35
2022-08-27T03:11:44.932Z,1.60
2022-08-27T03:14:16.033Z,1.90
2022-08-27T03:16:47.056Z,1.55
2022-08-27T03:19:21.650Z,1.48
2022-08-27T03:21:57.926Z,1.83
2022-08-27T03:24:34.351Z,1.95
2022-08-27T03:27:05.105Z,1.10
2022-08-27T03:29:36.614Z,1.00
2022-08-27T03:32:08.763Z,2.08
2022-08-27T03:34:45.595Z,1.20
2022-08-27T03:37:14.178Z,1.25
2022-08-27T03:39:44.474Z,1.35
2022-08-27T03:42:13.405Z,1.83
2022-08-27T03:44:42.336Z,1.52
2022-08-27T03:47:12.481Z,1.65
2022-08-27T03:49:41.385Z,2.17
2022-08-27T03:52:10.515Z,1.20
2022-08-27T03:54:39.763Z,1.38
2022-08-27T03:57:09.553Z,1.58
2022-08-27T03:59:38.403Z,1.02
2022-08-27T04:02:07.771Z,1.35
2022-08-27T04:04:43.220Z,2.60
2022-08-27T04:07:11.938Z,1.98
2022-08-27T04:09:43.945Z,1.92
2022-08-27T04:12:12.523Z,1.40
2022-08-27T04:14:45.718Z,1.23
2022-08-27T04:17:17.368Z,1.13
2022-08-27T04:19:46.532Z,1.50
2022-08-27T04:22:14.931Z,1.60
2022-08-27T04:24:44.053Z,1.98
2022-08-27T04:27:15.110Z,2.33
2022-08-27T04:29:44.245Z,1.35
2022-08-27T04:32:13.323Z,1.83
2022-08-27T04:34:43.662Z,2.10
2022-08-27T04:37:23.250Z,2.00
2022-08-27T04:39:56.001Z,1.70
2022-08-27T04:42:25.060Z,1.80
2022-08-27T04:44:54.759Z,1.67
2022-08-27T04:47:23.254Z,1.67
2022-08-27T04:49:52.188Z,2.33
2022-08-27T04:52:20.777Z,0.93
2022-08-27T04:54:49.885Z,1.52
2022-08-27T04:57:20.858Z,1.70
2022-08-27T04:59:50.169Z,1.35
2022-08-27T05:02:20.797Z,2.03
2022-08-27T05:04:50.008Z,1.58
2022-08-27T05:07:23.103Z,1.70
2022-08-27T05:09:52.221Z,1.43
2022-08-27T05:12:20.906Z,2.22
2022-08-27T05:14:50.296Z,2.25
2022-08-27T05:17:20.036Z,1.65
2022-08-27T05:19:49.632Z,2.45
2022-08-27T05:22:18.472Z,1.75
2022-08-27T05:24:50.181Z,1.80
2022-08-27T05:27:19.633Z,1.80
2022-08-27T05:29:48.522Z,2.15
2022-08-27T05:32:19.587Z,2.80
2022-08-27T05:34:50.597Z,1.92
2022-08-27T05:37:22.787Z,1.98
2022-08-27T05:39:52.300Z,1.80
2022-08-27T05:42:20.727Z,1.92
2022-08-27T05:44:49.884Z,1.50
2022-08-27T05:47:20.852Z,2.10
2022-08-27T05:49:56.047Z,1.27
2022-08-27T05:52:25.058Z,2.10
2022-08-27T05:54:53.997Z,1.80
2022-08-27T05:57:23.741Z,1.70
2022-08-27T06:00:24.351Z,1.83
2022-08-27T06:03:13.120Z,1.50
2022-08-27T06:05:41.621Z,1.63
2022-08-27T06:08:10.903Z,1.67
2022-08-27T06:10:43.025Z,2.15
2022-08-27T06:13:15.282Z,2.17
2022-08-27T06:15:45.503Z,1.70
2022-08-27T06:18:15.168Z,1.50
2022-08-27T06:20:45.893Z,3.15
2022-08-27T06:23:15.423Z,1.52
2022-08-27T06:25:45.455Z,2.05
2022-08-27T06:28:16.528Z,1.77
2022-08-27T06:30:47.176Z,1.42
2022-08-27T06:33:21.203Z,1.10
2022-08-27T06:35:50.105Z,1.40
2022-08-27T06:38:20.322Z,1.52
2022-08-27T06:40:49.352Z,1.42
2022-08-27T06:43:20.171Z,1.30
2022-08-27T06:45:52.814Z,1.88
2022-08-27T06:48:22.637Z,2.00
2022-08-27T06:50:51.087Z,1.73
2022-08-27T06:53:24.509Z,1.20
2022-08-27T06:55:54.597Z,2.08
2022-08-27T06:58:23.507Z,1.30
2022-08-27T07:00:56.870Z,2.25
2022-08-27T07:03:44.036Z,1.67
2022-08-27T07:06:15.726Z,1.50
2022-08-27T07:08:53.346Z,1.75
2022-08-27T07:11:28.575Z,2.85
2022-08-27T07:13:57.232Z,1.73
2022-08-27T07:16:37.581Z,1.80
2022-08-27T07:19:11.521Z,1.70
2022-08-27T07:21:43.101Z,1.77
2022-08-27T07:24:12.451Z,1.73
2022-08-27T07:26:42.032Z,2.10
2022-08-27T07:29:12.312Z,1.83
2022-08-27T07:31:45.249Z,2.03
2022-08-27T07:34:22.686Z,1.80
2022-08-27T07:36:59.894Z,1.95
2022-08-27T07:39:33.440Z,1.48
2022-08-27T07:42:21.179Z,1.77
2022-08-27T07:44:50.657Z,1.90
2022-08-27T07:47:19.767Z,1.63
2022-08-27T07:49:51.628Z,2.05
2022-08-27T07:52:23.596Z,1.42
2022-08-27T07:54:57.496Z,1.58
2022-08-27T07:57:26.265Z,2.00
2022-08-27T07:59:56.824Z,1.35
2022-08-27T08:02:35.126Z,1.63
2022-08-27T08:05:05.458Z,1.27
2022-08-27T08:07:40.877Z,1.60
2022-08-27T08:10:11.287Z,1.52
2022-08-27T08:15:12.878Z,2.65
2022-08-27T08:17:46.572Z,1.50
2022-08-27T08:20:27.519Z,1.58
2022-08-27T08:23:04.741Z,1.50
2022-08-27T08:25:41.833Z,1.52
2022-08-27T08:28:12.551Z,1.48
2022-08-27T08:30:48.547Z,1.35
2022-08-27T08:33:34.843Z,1.27
2022-08-27T08:36:08.768Z,1.33
2022-08-27T08:38:51.299Z,1.50
2022-08-27T08:41:34.983Z,1.48
2022-08-27T08:44:38.782Z,1.23
2022-08-27T08:47:31.392Z,2.05
2022-08-27T08:50:11.712Z,1.27
2022-08-27T08:52:52.817Z,1.10
2022-08-27T08:55:30.251Z,1.30
2022-08-27T08:57:58.829Z,1.30
2022-08-27T09:00:28.288Z,1.38
2022-08-27T09:03:16.016Z,0.95
2022-08-27T09:06:13.107Z,1.17
2022-08-27T09:08:43.987Z,1.98
2022-08-27T09:11:15.828Z,1.00
2022-08-27T09:13:48.229Z,1.00
2022-08-27T09:16:16.657Z,1.58
2022-08-27T09:18:52.310Z,1.55
2022-08-27T09:21:49.627Z,1.05
2022-08-27T09:24:55.937Z,1.13
2022-08-27T09:27:31.246Z,1.20
2022-08-27T09:30:06.005Z,0.85
2022-08-27T09:32:55.387Z,0.90
2022-08-27T09:35:24.438Z,1.70
2022-08-27T09:37:54.500Z,1.08
2022-08-27T09:40:23.752Z,0.95
2022-08-27T09:42:54.133Z,0.88
2022-08-27T09:45:25.769Z,1.00
2022-08-27T09:48:15.987Z,1.30
2022-08-27T09:50:50.648Z,0.70
2022-08-27T09:53:22.284Z,1.10
2022-08-27T09:55:55.581Z,0.77
2022-08-27T09:58:28.422Z,0.90
2022-08-27T10:01:07.356Z,0.82
2022-08-27T10:03:40.775Z,1.55
2022-08-27T10:06:09.423Z,1.17
2022-08-27T10:43:36.343Z,0.85
2022-08-27T11:54:12.109Z,1.03
2022-08-27T11:56:43.163Z,1.50
2022-08-27T11:59:22.608Z,1.20
2022-08-27T12:03:23.416Z,2.10
2022-08-27T12:05:55.821Z,2.03
2022-08-27T12:09:54.843Z,2.35
2022-08-27T12:12:28.237Z,2.72
2022-08-27T12:15:04.545Z,2.65
2022-08-27T12:17:35.942Z,4.63
2022-08-27T12:20:10.076Z,2.40
2022-08-27T12:25:26.694Z,1.77
2022-08-27T12:28:04.086Z,1.90
2022-08-27T12:30:34.973Z,2.35
2022-08-27T12:33:27.169Z,2.88
2022-08-27T12:41:43.813Z,1.60
2022-08-27T12:44:15.892Z,1.92
2022-08-27T12:46:51.456Z,2.38
2022-08-27T12:49:38.643Z,1.50
2022-08-27T12:52:20.413Z,1.52
2022-08-27T13:03:45.847Z,1.02
2022-08-27T13:06:27.341Z,1.40
2022-08-27T13:08:57.188Z,1.17
2022-08-27T13:11:29.891Z,0.90
2022-08-27T13:14:16.448Z,1.08
2022-08-27T13:16:57.321Z,1.45
2022-08-27T13:19:37.693Z,0.70
2022-08-27T13:22:07.936Z,1.00
2022-08-27T13:24:47.890Z,0.60
2022-08-27T13:27:24.704Z,1.13
2022-08-27T13:29:53.657Z,1.08
2022-08-27T13:32:25.296Z,0.95
2022-08-27T13:34:55.103Z,1.10
2022-08-27T13:37:28.398Z,0.70
2022-08-27T13:39:57.821Z,1.00
2022-08-27T13:42:27.113Z,1.02
2022-08-27T13:45:01.506Z,0.73
2022-08-27T13:47:43.541Z,0.85
2022-08-27T13:50:24.357Z,0.70
2022-08-27T13:53:12.110Z,2.20
2022-08-27T13:55:46.627Z,0.85
2022-08-27T13:58:19.902Z,0.80
2022-08-27T14:00:48.640Z,0.70
2022-08-27T14:03:30.174Z,0.90
2022-08-27T14:05:59.421Z,0.70
2022-08-27T14:08:30.960Z,0.80
2022-08-27T14:11:03.017Z,1.23
2022-08-27T14:13:38.253Z,0.65
2022-08-27T14:16:13.913Z,0.70
2022-08-27T14:18:59.766Z,1.52
2022-08-27T14:21:28.217Z,1.15
2022-08-27T14:23:56.888Z,1.02
2022-08-27T14:26:27.756Z,0.68
2022-08-27T14:28:58.443Z,0.77
2022-08-27T14:31:28.754Z,1.23
2022-08-27T14:33:57.494Z,2.33
2022-08-27T14:36:30.469Z,1.02
2022-08-27T14:39:01.116Z,0.80
2022-08-27T14:41:33.237Z,1.08
2022-08-27T14:44:01.987Z,0.85
2022-08-27T14:46:35.795Z,0.57
2022-08-27T14:49:15.711Z,0.70
2022-08-27T14:54:12.849Z,0.88
2022-08-27T14:56:41.530Z,0.68
2022-08-27T14:59:10.696Z,0.70
2022-08-27T15:01:39.258Z,1.00
2022-08-27T15:04:08.205Z,0.70
2022-08-27T15:06:36.771Z,0.90
2022-08-27T15:09:10.042Z,0.75
2022-08-27T15:11:41.713Z,0.80
2022-08-27T15:14:29.874Z,0.95
2022-08-27T15:16:59.570Z,0.77
2022-08-27T15:19:28.534Z,0.68
2022-08-27T15:22:05.019Z,0.77
2022-08-27T15:24:51.613Z,1.27
2022-08-27T15:27:38.810Z,0.82
2022-08-27T15:30:13.291Z,0.80
2022-08-27T15:33:00.016Z,0.77
2022-08-27T15:35:29.411Z,0.70
2022-08-27T15:37:58.250Z,1.15
2022-08-27T15:40:28.119Z,1.27
2022-08-27T15:42:59.573Z,0.85
2022-08-27T15:45:29.041Z,0.80
2022-08-27T15:47:57.938Z,0.75
2022-08-27T15:50:27.441Z,0.70
2022-08-27T15:53:00.508Z,1.67
2022-08-27T15:55:31.468Z,1.57
2022-08-27T15:58:00.537Z,3.58
2022-08-27T16:00:33.773Z,0.93
2022-08-27T16:03:11.207Z,1.77
2022-08-27T16:05:42.426Z,1.38
2022-08-27T16:08:11.041Z,0.65
2022-08-27T16:10:41.557Z,0.80
2022-08-27T16:13:10.061Z,0.80
2022-08-27T16:15:40.483Z,1.13
2022-08-27T16:18:09.344Z,0.90
2022-08-27T16:20:41.353Z,0.88
2022-08-27T16:23:12.083Z,0.70
2022-08-27T16:25:44.504Z,1.50
2022-08-27T16:28:13.661Z,0.95
2022-08-27T16:30:43.599Z,0.70
2022-08-27T16:33:18.881Z,0.73
2022-08-27T16:35:48.076Z,0.52
2022-08-27T16:38:18.867Z,0.52
2022-08-27T16:40:51.897Z,0.60
2022-08-27T16:43:27.206Z,0.80
2022-08-27T16:45:57.986Z,0.45
2022-08-27T16:48:44.487Z,0.68
2022-08-27T16:51:24.154Z,1.17
2022-08-27T16:53:53.825Z,0.70
2022-08-27T16:56:26.193Z,1.05
2022-08-27T16:58:58.274Z,0.57
2022-08-27T17:01:28.326Z,0.68
2022-08-27T17:04:09.055Z,0.90
2022-08-27T17:06:42.285Z,0.70
2022-08-27T17:09:14.732Z,0.60
2022-08-27T17:11:44.196Z,0.45
2022-08-27T17:14:14.493Z,0.68
2022-08-27T17:16:46.257Z,0.60
2022-08-27T17:19:19.448Z,2.00
2022-08-27T17:21:50.666Z,0.82
2022-08-27T17:24:19.062Z,0.70
2022-08-27T17:26:49.460Z,0.80
2022-08-27T17:29:18.943Z,0.65
2022-08-27T17:31:49.239Z,1.42
2022-08-27T17:34:22.227Z,1.20
2022-08-27T17:36:51.654Z,1.00
2022-08-27T17:39:21.580Z,0.95
2022-08-27T17:41:51.306Z,0.85
2022-08-27T17:44:25.702Z,0.88
2022-08-27T17:46:56.431Z,1.05
2022-08-27T17:49:27.306Z,0.95
2022-08-27T17:51:59.236Z,0.60
2022-08-27T17:54:34.836Z,0.63
2022-08-27T17:59:36.430Z,0.57
2022-08-27T18:02:06.062Z,0.80
2022-08-27T18:04:35.640Z,1.05
2022-08-27T18:07:04.462Z,1.48
2022-08-27T18:09:34.000Z,1.05
2022-08-27T18:12:05.066Z,1.10
2022-08-27T18:14:33.613Z,0.70
2022-08-27T18:17:03.172Z,0.90
2022-08-27T18:19:32.631Z,0.70
2022-08-27T18:22:02.361Z,1.25
2022-08-27T18:24:32.140Z,0.70
2022-08-27T18:27:00.830Z,0.70
2022-08-27T18:29:32.439Z,0.73
2022-08-27T18:32:01.132Z,0.90
2022-08-27T18:34:33.948Z,0.80
2022-08-27T18:37:05.322Z,0.55
2022-08-27T18:39:39.614Z,0.55
2022-08-27T18:42:08.893Z,0.85
2022-08-27T18:44:41.682Z,0.60
2022-08-27T18:47:10.778Z,0.70
2022-08-27T18:49:40.312Z,0.70
2022-08-27T18:52:12.142Z,0.88
2022-08-27T18:54:42.892Z,0.80
2022-08-27T18:57:12.958Z,0.65
2022-08-27T18:59:45.785Z,1.38
2022-08-27T19:02:18.348Z,0.60
2022-08-27T19:04:48.695Z,0.80
2022-08-27T19:07:17.919Z,1.48
2022-08-27T19:09:47.626Z,0.68
2022-08-27T19:12:17.589Z,1.08
2022-08-27T19:14:48.102Z,0.68
2022-08-27T19:17:43.102Z,1.60
2022-08-27T19:20:15.800Z,1.10
2022-08-27T19:22:49.327Z,0.80
2022-08-27T19:25:17.886Z,0.90
2022-08-27T19:27:49.776Z,1.17
2022-08-27T19:30:20.010Z,0.80
2022-08-27T19:33:00.227Z,0.75
2022-08-27T19:35:31.977Z,0.75
2022-08-27T19:38:02.034Z,0.68
2022-08-27T19:40:33.289Z,0.65
2022-08-27T19:43:01.713Z,0.70
2022-08-27T19:45:31.055Z,1.33
2022-08-27T19:48:02.059Z,0.77
2022-08-27T19:50:34.548Z,1.27
2022-08-27T19:53:03.252Z,1.00
2022-08-27T19:55:33.088Z,0.80
2022-08-27T19:58:03.616Z,0.75
2022-08-27T20:00:34.505Z,0.82
2022-08-27T20:05:38.204Z,0.80
2022-08-27T20:08:06.846Z,0.70
2022-08-27T20:10:38.796Z,0.70
2022-08-27T20:13:07.556Z,1.10
2022-08-27T20:15:36.629Z,0.95
2022-08-27T20:18:10.240Z,0.95
2022-08-27T20:20:42.868Z,1.25
2022-08-27T20:23:15.690Z,1.38
2022-08-27T20:25:44.599Z,1.00
2022-08-27T20:28:38.454Z,1.23
2022-08-27T20:31:05.728Z,1.42
2022-08-27T20:33:36.730Z,0.93
2022-08-27T20:36:07.923Z,1.00
2022-08-27T20:38:38.408Z,1.38
2022-08-27T20:41:09.076Z,0.65
2022-08-27T20:43:37.893Z,0.85
2022-08-27T20:46:10.172Z,2.97
2022-08-27T20:48:41.175Z,1.00
2022-08-27T20:51:10.172Z,0.73
2022-08-27T20:53:40.021Z,0.85
2022-08-27T20:56:09.732Z,0.60
2022-08-27T20:58:58.245Z,1.20
2022-08-27T21:01:27.879Z,0.70
2022-08-27T21:03:58.585Z,0.93
2022-08-27T21:06:28.004Z,1.08
2022-08-27T21:08:58.769Z,0.60
2022-08-27T21:11:27.814Z,1.73
2022-08-27T21:13:57.340Z,0.68
2022-08-27T21:16:26.329Z,1.42
2022-08-27T21:18:56.194Z,0.73
2022-08-27T21:21:27.426Z,0.90
2022-08-27T21:23:56.841Z,0.60
2022-08-27T21:26:27.250Z,1.05
2022-08-27T21:28:57.386Z,0.88
2022-08-27T21:31:27.572Z,0.55
2022-08-27T21:33:56.892Z,0.60
2022-08-27T21:36:25.612Z,0.70
2022-08-27T21:38:54.125Z,1.02
2022-08-27T21:41:23.583Z,0.40
2022-08-27T21:43:53.124Z,0.60
2022-08-27T21:46:22.611Z,0.60
2022-08-27T21:48:58.642Z,0.55
2022-08-27T21:51:29.321Z,0.68
2022-08-27T21:53:59.770Z,0.65
2022-08-27T21:56:29.219Z,0.75
2022-08-27T21:58:59.654Z,1.80
2022-08-27T22:01:28.072Z,0.57
2022-08-27T22:03:57.506Z,0.80
2022-08-27T22:06:28.089Z,1.05
2022-08-27T22:08:57.931Z,1.33
2022-08-27T22:11:30.550Z,0.50
2022-08-27T22:14:00.502Z,1.00
2022-08-27T22:16:30.846Z,0.63
2022-08-27T22:19:02.319Z,0.60
2022-08-27T22:21:32.860Z,0.60
2022-08-27T22:24:01.477Z,0.60
2022-08-27T22:26:34.292Z,0.70
2022-08-27T22:29:03.893Z,0.60
2022-08-27T22:31:33.811Z,0.50
2022-08-27T22:34:02.969Z,0.80
2022-08-27T22:36:33.866Z,0.82
2022-08-27T22:39:04.187Z,0.80
2022-08-27T22:41:35.243Z,1.00
2022-08-27T22:44:06.533Z,0.52
2022-08-27T22:46:36.844Z,0.68
2022-08-27T22:49:06.905Z,0.60
2022-08-27T22:51:38.011Z,0.73
2022-08-27T22:54:06.391Z,1.13
2022-08-27T22:56:36.201Z,0.80
2022-08-27T22:59:07.329Z,0.60
2022-08-27T23:01:39.365Z,0.55
2022-08-27T23:04:09.969Z,0.70
2022-08-27T23:06:40.385Z,0.70
2022-08-27T23:09:10.422Z,0.95
2022-08-27T23:11:40.104Z,0.88
2022-08-27T23:14:11.663Z,0.90
2022-08-27T23:16:41.319Z,0.40
2022-08-27T23:19:10.020Z,0.70
2022-08-27T23:21:39.774Z,0.70
2022-08-27T23:24:10.160Z,0.50
2022-08-27T23:26:58.810Z,0.70
2022-08-27T23:29:30.161Z,0.75
2022-08-27T23:32:00.146Z,0.60
2022-08-27T23:34:31.985Z,0.85
2022-08-27T23:37:01.665Z,0.80
2022-08-27T23:39:31.652Z,0.85
2022-08-27T23:42:02.504Z,1.10
2022-08-27T23:44:35.826Z,0.85
2022-08-27T23:47:04.710Z,0.93
2022-08-27T23:49:33.452Z,1.05
2022-08-27T23:52:03.218Z,0.70
2022-08-27T23:54:33.945Z,1.02
2022-08-27T23:57:04.317Z,0.90
2022-08-27T23:59:34.068Z,0.63
